Time;durP1;ratioP1;P1;durP2;ratioP2;P2;SDS_P1;SDS_P2;PMS_P1;PMS_P2;Temp;Humidity;BMP_temperature;BMP_pressure;BME280_temperature;BME280_humidity;BME280_pressure;Samples;Min_cycle;Max_cycle;Signal;HPM_P1;HPM_P2
2023/09/05 00:01:39;;;;;;;12.00;9.00;;;;;;;-128.00;-1.00;-1.00;105642;1251;1004411;-80
2023/09/05 00:04:05;;;;;;;15.00;9.80;;;;;;;-128.00;-1.00;-1.00;105731;1251;1004394;-80
2023/09/05 00:06:32;;;;;;;14.30;10.60;;;;;;;-128.00;-1.00;-1.00;105781;1251;1004352;-80
2023/09/05 00:08:58;;;;;;;15.30;10.60;;;;;;;-128.00;-1.00;-1.00;105824;1251;1003831;-80
2023/09/05 00:11:25;;;;;;;14.90;10.20;;;;;;;-128.00;-1.00;-1.00;105654;1251;1003399;-80
2023/09/05 00:13:52;;;;;;;13.90;10.10;;;;;;;-128.00;-1.00;-1.00;105616;1251;1003758;-80
2023/09/05 00:16:18;;;;;;;17.80;11.40;;;;;;;-128.00;-1.00;-1.00;105623;1251;1004261;-80
2023/09/05 00:18:44;;;;;;;19.00;10.70;;;;;;;-128.00;-1.00;-1.00;105650;1251;1004898;-80
2023/09/05 00:21:15;;;;;;;16.90;10.30;;;;;;;-128.00;-1.00;-1.00;105641;1250;1004478;-80
2023/09/05 00:23:41;;;;;;;17.20;10.90;;;;;;;-128.00;-1.00;-1.00;105624;1251;1058999;-79
2023/09/05 00:26:07;;;;;;;14.60;10.10;;;;;;;-128.00;-1.00;-1.00;105541;1251;1004432;-80
2023/09/05 00:28:34;;;;;;;14.20;9.70;;;;;;;-128.00;-1.00;-1.00;105683;1251;1005021;-80
2023/09/05 00:31:01;;;;;;;14.90;9.80;;;;;;;-128.00;-1.00;-1.00;105783;1251;1003495;-80
2023/09/05 00:33:31;;;;;;;21.00;11.50;;;;;;;-128.00;-1.00;-1.00;105816;1251;1004551;-80
2023/09/05 00:35:58;;;;;;;14.30;9.70;;;;;;;-128.00;-1.00;-1.00;105643;1251;1059391;-80
2023/09/05 00:38:24;;;;;;;16.50;11.60;;;;;;;-128.00;-1.00;-1.00;105670;1251;1003416;-80
2023/09/05 00:40:51;;;;;;;14.80;9.80;;;;;;;-128.00;-1.00;-1.00;105756;1251;1004392;-80
2023/09/05 00:43:19;;;;;;;17.70;10.80;;;;;;;-128.00;-1.00;-1.00;105616;1250;1004962;-80
2023/09/05 00:45:49;;;;;;;19.70;12.40;;;;;;;-128.00;-1.00;-1.00;105640;1250;1004713;-80
2023/09/05 00:48:16;;;;;;;22.00;11.00;;;;;;;-128.00;-1.00;-1.00;105454;1251;1061056;-79
2023/09/05 00:50:42;;;;;;;20.40;11.90;;;;;;;-128.00;-1.00;-1.00;105652;1251;1004699;-80
2023/09/05 00:53:08;;;;;;;14.10;10.50;;;;;;;-128.00;-1.00;-1.00;105601;1251;1004446;-80
2023/09/05 00:55:35;;;;;;;24.20;13.00;;;;;;;-128.00;-1.00;-1.00;105447;1251;1003590;-80
2023/09/05 00:58:02;;;;;;;15.20;10.60;;;;;;;-128.00;-1.00;-1.00;105572;1250;1003987;-80
2023/09/05 01:00:29;;;;;;;24.60;12.20;;;;;;;-128.00;-1.00;-1.00;105582;1251;1004598;-80
2023/09/05 01:02:55;;;;;;;24.00;12.00;;;;;;;-128.00;-1.00;-1.00;105557;1251;1004467;-80
2023/09/05 01:05:24;;;;;;;20.30;12.20;;;;;;;-128.00;-1.00;-1.00;105552;1251;1004615;-80
2023/09/05 01:08:04;;;;;;;14.30;10.50;;;;;;;-128.00;-1.00;-1.00;105580;1254;1060390;-79
2023/09/05 01:10:42;;;;;;;16.50;10.80;;;;;;;-128.00;-1.00;-1.00;105508;1251;1057766;-80
2023/09/05 01:13:09;;;;;;;15.00;10.90;;;;;;;-128.00;-1.00;-1.00;105435;1251;1059170;-81
2023/09/05 01:15:36;;;;;;;15.10;11.00;;;;;;;-128.00;-1.00;-1.00;105581;1250;1004323;-79
2023/09/05 01:18:03;;;;;;;16.70;11.10;;;;;;;-128.00;-1.00;-1.00;105580;1251;1004762;-80
2023/09/05 01:20:36;;;;;;;18.20;11.50;;;;;;;-128.00;-1.00;-1.00;105457;1251;1004150;-80
2023/09/05 01:23:09;;;;;;;17.80;12.50;;;;;;;-128.00;-1.00;-1.00;105612;1251;1058949;-80
2023/09/05 01:25:36;;;;;;;16.20;11.90;;;;;;;-128.00;-1.00;-1.00;105623;1251;1059926;-80
2023/09/05 01:28:04;;;;;;;18.50;13.60;;;;;;;-128.00;-1.00;-1.00;105442;1251;1003993;-80
2023/09/05 01:30:30;;;;;;;22.60;13.30;;;;;;;-128.00;-1.00;-1.00;105577;1251;1004535;-80
2023/09/05 01:32:56;;;;;;;26.00;13.20;;;;;;;-128.00;-1.00;-1.00;105575;1250;1004630;-79
2023/09/05 01:35:23;;;;;;;17.30;11.80;;;;;;;-128.00;-1.00;-1.00;105583;1250;1004830;-80
2023/09/05 01:37:49;;;;;;;18.30;10.10;;;;;;;-128.00;-1.00;-1.00;105576;1251;1003985;-80
2023/09/05 01:40:16;;;;;;;16.30;11.40;;;;;;;-128.00;-1.00;-1.00;105571;1250;1004592;-80
2023/09/05 01:42:42;;;;;;;17.10;11.40;;;;;;;-128.00;-1.00;-1.00;105591;1250;1004287;-80
2023/09/05 01:45:09;;;;;;;18.70;12.60;;;;;;;-128.00;-1.00;-1.00;105611;1251;1004809;-80
2023/09/05 01:47:35;;;;;;;23.10;12.70;;;;;;;-128.00;-1.00;-1.00;105612;1251;1004233;-80
2023/09/05 01:50:02;;;;;;;20.10;13.50;;;;;;;-128.00;-1.00;-1.00;105585;1251;1004448;-80
2023/09/05 01:52:28;;;;;;;21.30;13.00;;;;;;;-128.00;-1.00;-1.00;105567;1250;1004609;-80
2023/09/05 01:54:55;;;;;;;16.60;11.40;;;;;;;-128.00;-1.00;-1.00;105613;1251;1004010;-80
2023/09/05 01:57:21;;;;;;;18.20;11.70;;;;;;;-128.00;-1.00;-1.00;105598;1252;1003720;-80
2023/09/05 01:59:48;;;;;;;16.90;11.10;;;;;;;-128.00;-1.00;-1.00;105587;1251;1005345;-80
2023/09/05 02:02:14;;;;;;;13.60;9.70;;;;;;;-128.00;-1.00;-1.00;105613;1251;1003910;-80
2023/09/05 02:04:41;;;;;;;15.00;9.90;;;;;;;-128.00;-1.00;-1.00;105606;1251;1004244;-80
2023/09/05 02:07:08;;;;;;;14.70;8.90;;;;;;;-128.00;-1.00;-1.00;105623;1250;1004847;-80
2023/09/05 02:09:35;;;;;;;12.10;8.20;;;;;;;-128.00;-1.00;-1.00;105590;1251;1004055;-80
2023/09/05 02:12:02;;;;;;;16.30;9.30;;;;;;;-128.00;-1.00;-1.00;105564;1250;1004315;-79
2023/09/05 02:14:28;;;;;;;15.90;9.30;;;;;;;-128.00;-1.00;-1.00;105564;1250;1004305;-79
2023/09/05 02:16:55;;;;;;;15.90;9.70;;;;;;;-128.00;-1.00;-1.00;105580;1251;1004062;-79
2023/09/05 02:19:23;;;;;;;16.50;10.60;;;;;;;-128.00;-1.00;-1.00;105479;1251;1004145;-80
2023/09/05 02:21:50;;;;;;;12.80;8.50;;;;;;;-128.00;-1.00;-1.00;105603;1250;1005019;-80
2023/09/05 02:24:16;;;;;;;15.20;9.90;;;;;;;-128.00;-1.00;-1.00;105593;1251;1003734;-80
2023/09/05 02:26:42;;;;;;;17.90;11.00;;;;;;;-128.00;-1.00;-1.00;105576;1251;1004211;-79
2023/09/05 02:29:09;;;;;;;13.80;10.40;;;;;;;-128.00;-1.00;-1.00;105439;1251;1004218;-80
2023/09/05 02:31:35;;;;;;;11.00;7.60;;;;;;;-128.00;-1.00;-1.00;105571;1250;1005035;-80
2023/09/05 02:34:02;;;;;;;14.10;9.60;;;;;;;-128.00;-1.00;-1.00;105574;1250;1004861;-80
2023/09/05 02:36:30;;;;;;;13.00;9.40;;;;;;;-128.00;-1.00;-1.00;105601;1250;1004124;-80
2023/09/05 02:38:58;;;;;;;13.90;10.30;;;;;;;-128.00;-1.00;-1.00;105571;1250;1004356;-80
2023/09/05 02:41:24;;;;;;;14.10;10.00;;;;;;;-128.00;-1.00;-1.00;105482;1250;1004703;-80
2023/09/05 02:43:51;;;;;;;16.80;10.90;;;;;;;-128.00;-1.00;-1.00;105582;1251;1003431;-80
2023/09/05 02:46:17;;;;;;;13.70;10.10;;;;;;;-128.00;-1.00;-1.00;105569;1250;1003692;-80
2023/09/05 02:48:43;;;;;;;14.10;9.90;;;;;;;-128.00;-1.00;-1.00;105605;1251;1004262;-80
2023/09/05 02:51:10;;;;;;;16.00;9.20;;;;;;;-128.00;-1.00;-1.00;105523;1253;1003382;-80
2023/09/05 02:53:37;;;;;;;11.80;9.00;;;;;;;-128.00;-1.00;-1.00;105306;1254;1003880;-80
2023/09/05 02:56:04;;;;;;;17.10;9.50;;;;;;;-128.00;-1.00;-1.00;105599;1251;1004629;-80
2023/09/05 02:58:31;;;;;;;13.70;8.00;;;;;;;-128.00;-1.00;-1.00;105604;1250;1003734;-80
2023/09/05 03:01:02;;;;;;;16.40;9.40;;;;;;;-128.00;-1.00;-1.00;105466;1252;1004561;-80
2023/09/05 03:03:29;;;;;;;15.30;8.00;;;;;;;-128.00;-1.00;-1.00;105538;1250;1058630;-80
2023/09/05 03:05:55;;;;;;;10.80;8.30;;;;;;;-128.00;-1.00;-1.00;105580;1251;1004430;-79
2023/09/05 03:08:22;;;;;;;11.30;8.20;;;;;;;-128.00;-1.00;-1.00;105586;1251;1004161;-80
2023/09/05 03:10:52;;;;;;;11.60;9.20;;;;;;;-128.00;-1.00;-1.00;105593;1250;1003958;-80
2023/09/05 03:13:19;;;;;;;11.50;8.10;;;;;;;-128.00;-1.00;-1.00;105612;1250;1057890;-80
2023/09/05 03:15:52;;;;;;;12.10;9.20;;;;;;;-128.00;-1.00;-1.00;105561;1250;1003764;-79
2023/09/05 03:18:19;;;;;;;11.00;7.80;;;;;;;-128.00;-1.00;-1.00;105605;1250;1047011;-80
2023/09/05 03:20:46;;;;;;;15.10;8.70;;;;;;;-128.00;-1.00;-1.00;105612;1250;1003329;-80
2023/09/05 03:23:13;;;;;;;12.00;8.10;;;;;;;-128.00;-1.00;-1.00;105585;1250;1004156;-80
2023/09/05 03:25:39;;;;;;;12.30;8.10;;;;;;;-128.00;-1.00;-1.00;105604;1250;1004388;-81
2023/09/05 03:28:07;;;;;;;12.20;8.60;;;;;;;-128.00;-1.00;-1.00;105506;1251;1004383;-80
2023/09/05 03:30:33;;;;;;;11.80;8.20;;;;;;;-128.00;-1.00;-1.00;105625;1250;1004343;-80
2023/09/05 03:32:59;;;;;;;12.40;9.70;;;;;;;-128.00;-1.00;-1.00;105669;1250;1004573;-80
2023/09/05 03:35:26;;;;;;;14.40;8.90;;;;;;;-128.00;-1.00;-1.00;105637;1250;1005083;-80
2023/09/05 03:37:53;;;;;;;13.10;9.10;;;;;;;-128.00;-1.00;-1.00;105533;1251;1004143;-79
2023/09/05 03:40:19;;;;;;;14.20;10.00;;;;;;;-128.00;-1.00;-1.00;105351;1253;1004536;-80
2023/09/05 03:42:46;;;;;;;11.90;9.60;;;;;;;-128.00;-1.00;-1.00;105499;1253;1004356;-80
2023/09/05 03:45:12;;;;;;;12.40;8.00;;;;;;;-128.00;-1.00;-1.00;105550;1251;1004538;-80
2023/09/05 03:47:39;;;;;;;13.70;8.50;;;;;;;-128.00;-1.00;-1.00;105511;1251;1004981;-80
2023/09/05 03:50:06;;;;;;;12.60;9.20;;;;;;;-128.00;-1.00;-1.00;105585;1250;1004555;-80
2023/09/05 03:52:33;;;;;;;10.60;8.70;;;;;;;-128.00;-1.00;-1.00;105592;1251;1003654;-81
2023/09/05 03:55:00;;;;;;;10.40;8.20;;;;;;;-128.00;-1.00;-1.00;105691;1250;1004450;-80
2023/09/05 03:57:26;;;;;;;10.80;7.50;;;;;;;-128.00;-1.00;-1.00;105682;1250;1004140;-80
2023/09/05 03:59:52;;;;;;;11.00;8.50;;;;;;;-128.00;-1.00;-1.00;105556;1251;1004706;-79
2023/09/05 04:02:19;;;;;;;11.50;7.90;;;;;;;-128.00;-1.00;-1.00;105634;1251;1004272;-80
2023/09/05 04:04:45;;;;;;;9.30;7.70;;;;;;;-128.00;-1.00;-1.00;105556;1250;1004536;-80
2023/09/05 04:07:12;;;;;;;10.70;7.20;;;;;;;-128.00;-1.00;-1.00;105586;1250;1004451;-80
2023/09/05 04:09:38;;;;;;;11.30;7.50;;;;;;;-128.00;-1.00;-1.00;105580;1251;1004629;-79
2023/09/05 04:12:05;;;;;;;9.80;7.80;;;;;;;-128.00;-1.00;-1.00;105489;1250;1004885;-80
2023/09/05 04:14:32;;;;;;;10.60;8.20;;;;;;;-128.00;-1.00;-1.00;105597;1250;1003919;-80
2023/09/05 04:16:58;;;;;;;11.00;7.80;;;;;;;-128.00;-1.00;-1.00;105466;1251;1003298;-80
2023/09/05 04:19:24;;;;;;;9.80;6.60;;;;;;;-128.00;-1.00;-1.00;105562;1251;1003364;-80
2023/09/05 04:21:51;;;;;;;13.20;8.10;;;;;;;-128.00;-1.00;-1.00;105573;1251;1003951;-80
2023/09/05 04:24:17;;;;;;;12.10;8.40;;;;;;;-128.00;-1.00;-1.00;105710;1251;1005006;-80
2023/09/05 04:26:45;;;;;;;10.30;8.20;;;;;;;-128.00;-1.00;-1.00;105599;1251;1004667;-80
2023/09/05 04:29:11;;;;;;;11.30;8.00;;;;;;;-128.00;-1.00;-1.00;105594;1251;1004084;-80
2023/09/05 04:31:38;;;;;;;10.00;7.50;;;;;;;-128.00;-1.00;-1.00;105574;1251;1005133;-79
2023/09/05 04:34:04;;;;;;;11.40;7.70;;;;;;;-128.00;-1.00;-1.00;105627;1250;1005028;-79
2023/09/05 04:36:30;;;;;;;10.90;7.90;;;;;;;-128.00;-1.00;-1.00;105602;1250;1004798;-81
2023/09/05 04:38:57;;;;;;;15.20;7.80;;;;;;;-128.00;-1.00;-1.00;105613;1250;1005030;-80
2023/09/05 04:41:23;;;;;;;16.30;9.50;;;;;;;-128.00;-1.00;-1.00;105635;1251;1003984;-80
2023/09/05 04:43:50;;;;;;;12.90;9.10;;;;;;;-128.00;-1.00;-1.00;105637;1250;1004547;-80
2023/09/05 04:46:16;;;;;;;20.80;11.70;;;;;;;-128.00;-1.00;-1.00;105575;1251;1004332;-80
2023/09/05 04:48:43;;;;;;;13.70;10.70;;;;;;;-128.00;-1.00;-1.00;105449;1251;1004327;-79
2023/09/05 04:51:10;;;;;;;16.70;10.00;;;;;;;-128.00;-1.00;-1.00;105526;1253;1004614;-80
2023/09/05 04:53:36;;;;;;;13.10;10.00;;;;;;;-128.00;-1.00;-1.00;105472;1253;1004387;-80
2023/09/05 04:56:03;;;;;;;19.10;10.60;;;;;;;-128.00;-1.00;-1.00;105522;1251;1004530;-79
2023/09/05 04:58:30;;;;;;;18.20;12.20;;;;;;;-128.00;-1.00;-1.00;105538;1250;1004375;-79
2023/09/05 05:01:01;;;;;;;27.90;13.60;;;;;;;-128.00;-1.00;-1.00;105606;1251;1004659;-80
2023/09/05 05:03:29;;;;;;;18.50;12.10;;;;;;;-128.00;-1.00;-1.00;105766;1251;1058365;-81
2023/09/05 05:05:56;;;;;;;16.60;11.60;;;;;;;-128.00;-1.00;-1.00;105594;1251;1004165;-80
2023/09/05 05:08:22;;;;;;;16.60;11.60;;;;;;;-128.00;-1.00;-1.00;105756;1250;1004496;-80
2023/09/05 05:10:48;;;;;;;23.40;12.60;;;;;;;-128.00;-1.00;-1.00;105758;1251;1003871;-80
2023/09/05 05:13:15;;;;;;;17.10;11.90;;;;;;;-128.00;-1.00;-1.00;105736;1250;1005147;-80
2023/09/05 05:15:45;;;;;;;18.50;11.90;;;;;;;-128.00;-1.00;-1.00;105687;1250;1003506;-80
2023/09/05 05:18:12;;;;;;;14.30;10.10;;;;;;;-128.00;-1.00;-1.00;105736;1250;1060977;-80
2023/09/05 05:20:39;;;;;;;16.70;10.60;;;;;;;-128.00;-1.00;-1.00;105550;1253;1004727;-80
2023/09/05 05:23:05;;;;;;;15.20;10.70;;;;;;;-128.00;-1.00;-1.00;105580;1252;1003429;-80
2023/09/05 05:25:32;;;;;;;14.40;9.20;;;;;;;-128.00;-1.00;-1.00;105678;1251;1004812;-80
2023/09/05 05:27:59;;;;;;;12.70;8.40;;;;;;;-128.00;-1.00;-1.00;105632;1251;1003595;-80
2023/09/05 05:30:25;;;;;;;12.70;9.20;;;;;;;-128.00;-1.00;-1.00;105732;1251;1004850;-80
2023/09/05 05:32:52;;;;;;;12.50;7.80;;;;;;;-128.00;-1.00;-1.00;105461;1251;1004976;-80
2023/09/05 05:35:18;;;;;;;12.30;8.30;;;;;;;-128.00;-1.00;-1.00;105590;1251;1004682;-80
2023/09/05 05:37:44;;;;;;;11.40;8.70;;;;;;;-128.00;-1.00;-1.00;105603;1250;1004290;-79
2023/09/05 05:40:13;;;;;;;14.20;9.00;;;;;;;-128.00;-1.00;-1.00;105594;1250;1003577;-80
2023/09/05 05:42:39;;;;;;;13.70;9.30;;;;;;;-128.00;-1.00;-1.00;105550;1250;1004402;-81
2023/09/05 05:45:06;;;;;;;19.50;12.50;;;;;;;-128.00;-1.00;-1.00;105612;1251;1003743;-80
2023/09/05 05:47:33;;;;;;;15.90;11.50;;;;;;;-128.00;-1.00;-1.00;105771;1251;1003649;-80
2023/09/05 05:49:59;;;;;;;18.80;12.00;;;;;;;-128.00;-1.00;-1.00;105574;1251;1004476;-80
2023/09/05 05:52:25;;;;;;;17.60;11.20;;;;;;;-128.00;-1.00;-1.00;105605;1251;1004218;-80
2023/09/05 05:54:52;;;;;;;22.10;13.40;;;;;;;-128.00;-1.00;-1.00;105542;1251;1005167;-80
2023/09/05 05:57:18;;;;;;;17.30;12.20;;;;;;;-128.00;-1.00;-1.00;105418;1251;1003834;-80
2023/09/05 05:59:45;;;;;;;18.20;12.30;;;;;;;-128.00;-1.00;-1.00;105468;1251;1005360;-80
2023/09/05 06:02:11;;;;;;;21.50;14.10;;;;;;;-128.00;-1.00;-1.00;105472;1252;1003570;-80
2023/09/05 06:04:38;;;;;;;23.80;16.10;;;;;;;-128.00;-1.00;-1.00;105443;1252;1004140;-80
2023/09/05 06:07:04;;;;;;;26.60;17.10;;;;;;;-128.00;-1.00;-1.00;105389;1253;1003850;-80
2023/09/05 06:09:30;;;;;;;16.00;12.50;;;;;;;-128.00;-1.00;-1.00;105442;1251;1004385;-80
2023/09/05 06:11:58;;;;;;;19.30;12.60;;;;;;;-128.00;-1.00;-1.00;105588;1250;1003808;-80
2023/09/05 06:14:25;;;;;;;19.50;12.80;;;;;;;-128.00;-1.00;-1.00;105580;1250;1004811;-80
2023/09/05 06:16:51;;;;;;;17.40;12.50;;;;;;;-128.00;-1.00;-1.00;105588;1251;1004853;-80
2023/09/05 06:19:18;;;;;;;30.70;14.40;;;;;;;-128.00;-1.00;-1.00;105435;1254;1004313;-81
2023/09/05 06:21:46;;;;;;;17.00;12.50;;;;;;;-128.00;-1.00;-1.00;105591;1251;1003835;-80
2023/09/05 06:24:13;;;;;;;25.40;17.30;;;;;;;-128.00;-1.00;-1.00;105471;1252;1004280;-80
2023/09/05 06:26:41;;;;;;;21.70;14.20;;;;;;;-128.00;-1.00;-1.00;105731;1251;1003884;-80
2023/09/05 06:29:08;;;;;;;25.00;15.60;;;;;;;-128.00;-1.00;-1.00;105581;1251;1003727;-80
2023/09/05 06:31:35;;;;;;;19.90;14.20;;;;;;;-128.00;-1.00;-1.00;105639;1253;1004335;-80
2023/09/05 06:34:01;;;;;;;17.10;13.20;;;;;;;-128.00;-1.00;-1.00;105642;1251;1004284;-81
2023/09/05 06:36:28;;;;;;;20.80;14.40;;;;;;;-128.00;-1.00;-1.00;105690;1251;1004000;-81
2023/09/05 06:38:55;;;;;;;15.40;11.10;;;;;;;-128.00;-1.00;-1.00;105681;1250;1004863;-80
2023/09/05 06:41:21;;;;;;;17.20;12.40;;;;;;;-128.00;-1.00;-1.00;105730;1251;1004664;-80
2023/09/05 06:43:47;;;;;;;19.90;14.40;;;;;;;-128.00;-1.00;-1.00;105689;1251;1004761;-80
2023/09/05 06:46:14;;;;;;;22.70;14.40;;;;;;;-128.00;-1.00;-1.00;105585;1251;1005303;-80
2023/09/05 06:48:40;;;;;;;23.40;15.00;;;;;;;-128.00;-1.00;-1.00;105579;1251;1003846;-80
2023/09/05 06:51:07;;;;;;;21.70;14.50;;;;;;;-128.00;-1.00;-1.00;105539;1251;1004647;-80
2023/09/05 06:53:34;;;;;;;18.20;12.50;;;;;;;-128.00;-1.00;-1.00;105284;1252;1004645;-81
2023/09/05 06:56:00;;;;;;;30.00;17.70;;;;;;;-128.00;-1.00;-1.00;105265;1251;1004912;-80
2023/09/05 06:58:27;;;;;;;17.00;12.70;;;;;;;-128.00;-1.00;-1.00;105404;1251;1004929;-80
2023/09/05 07:00:54;;;;;;;16.10;11.90;;;;;;;-128.00;-1.00;-1.00;105513;1252;1005148;-80
2023/09/05 07:03:25;;;;;;;17.60;11.90;;;;;;;-128.00;-1.00;-1.00;105382;1253;1004808;-81
2023/09/05 07:05:56;;;;;;;23.50;12.50;;;;;;;-128.00;-1.00;-1.00;105589;1251;1057634;-80
2023/09/05 07:08:23;;;;;;;15.30;11.70;;;;;;;-128.00;-1.00;-1.00;105637;1251;1060348;-80
2023/09/05 07:10:49;;;;;;;14.80;11.00;;;;;;;-128.00;-1.00;-1.00;105704;1251;1003493;-81
2023/09/05 07:13:16;;;;;;;14.30;10.70;;;;;;;-128.00;-1.00;-1.00;105671;1251;1004602;-81
2023/09/05 07:15:43;;;;;;;14.90;10.70;;;;;;;-128.00;-1.00;-1.00;105674;1251;1004034;-81
2023/09/05 07:18:12;;;;;;;12.40;9.80;;;;;;;-128.00;-1.00;-1.00;105595;1251;1004226;-81
2023/09/05 07:20:39;;;;;;;16.20;9.80;;;;;;;-128.00;-1.00;-1.00;105490;1251;1060075;-81
2023/09/05 07:23:06;;;;;;;20.30;8.60;;;;;;;-128.00;-1.00;-1.00;105493;1250;1003726;-81
2023/09/05 07:25:37;;;;;;;11.10;9.00;;;;;;;-128.00;-1.00;-1.00;105549;1251;1003744;-81
2023/09/05 07:28:04;;;;;;;12.10;9.10;;;;;;;-128.00;-1.00;-1.00;105573;1250;1060923;-81
2023/09/05 07:30:32;;;;;;;10.60;8.20;;;;;;;-128.00;-1.00;-1.00;105572;1250;1004852;-81
2023/09/05 07:32:59;;;;;;;8.80;6.90;;;;;;;-128.00;-1.00;-1.00;105554;1251;1004053;-81
2023/09/05 07:35:25;;;;;;;9.20;7.00;;;;;;;-128.00;-1.00;-1.00;105457;1251;1004576;-81
2023/09/05 07:37:52;;;;;;;14.50;8.00;;;;;;;-128.00;-1.00;-1.00;105549;1250;1004584;-81
2023/09/05 07:40:19;;;;;;;8.90;7.00;;;;;;;-128.00;-1.00;-1.00;105531;1250;1004462;-81
2023/09/05 07:42:45;;;;;;;12.20;6.50;;;;;;;-128.00;-1.00;-1.00;105390;1251;1005400;-82
2023/09/05 07:45:12;;;;;;;7.00;5.60;;;;;;;-128.00;-1.00;-1.00;105502;1251;1004552;-81
2023/09/05 07:47:38;;;;;;;6.20;4.90;;;;;;;-128.00;-1.00;-1.00;105559;1251;1005167;-81
2023/09/05 07:50:05;;;;;;;6.50;5.40;;;;;;;-128.00;-1.00;-1.00;105561;1251;1003994;-81
2023/09/05 07:52:33;;;;;;;9.40;5.60;;;;;;;-128.00;-1.00;-1.00;105542;1250;1003740;-81
2023/09/05 07:54:59;;;;;;;9.30;5.40;;;;;;;-128.00;-1.00;-1.00;105468;1251;1003783;-81
2023/09/05 07:57:26;;;;;;;5.30;4.70;;;;;;;-128.00;-1.00;-1.00;105550;1251;1004588;-81
2023/09/05 07:59:52;;;;;;;6.20;4.90;;;;;;;-128.00;-1.00;-1.00;105530;1251;1003858;-82
2023/09/05 08:02:19;;;;;;;7.20;4.80;;;;;;;-128.00;-1.00;-1.00;105537;1250;1004600;-82
2023/09/05 08:04:45;;;;;;;6.80;4.80;;;;;;;-128.00;-1.00;-1.00;105566;1251;1004247;-82
2023/09/05 08:07:12;;;;;;;7.90;5.50;;;;;;;-128.00;-1.00;-1.00;105584;1251;1004527;-82
2023/09/05 08:09:38;;;;;;;8.70;5.40;;;;;;;-128.00;-1.00;-1.00;105555;1251;1004913;-82
2023/09/05 08:12:05;;;;;;;8.80;4.20;;;;;;;-128.00;-1.00;-1.00;105556;1251;1005148;-83
2023/09/05 08:14:31;;;;;;;7.20;4.00;;;;;;;-128.00;-1.00;-1.00;105575;1251;1005042;-82
2023/09/05 08:16:58;;;;;;;5.50;4.60;;;;;;;-128.00;-1.00;-1.00;105560;1251;1004206;-82
2023/09/05 08:19:24;;;;;;;5.80;4.20;;;;;;;-128.00;-1.00;-1.00;105533;1251;1005057;-83
2023/09/05 08:21:51;;;;;;;5.80;4.40;;;;;;;-128.00;-1.00;-1.00;105739;1251;1004116;-83
2023/09/05 08:24:17;;;;;;;8.80;4.60;;;;;;;-128.00;-1.00;-1.00;105713;1251;1003871;-83
2023/09/05 08:26:44;;;;;;;7.60;3.30;;;;;;;-128.00;-1.00;-1.00;105728;1251;1004727;-83
2023/09/05 08:29:10;;;;;;;5.70;4.00;;;;;;;-128.00;-1.00;-1.00;105545;1251;1004593;-83
2023/09/05 08:31:37;;;;;;;6.10;3.70;;;;;;;-128.00;-1.00;-1.00;105518;1251;1004062;-83
2023/09/05 08:34:03;;;;;;;6.20;3.90;;;;;;;-128.00;-1.00;-1.00;105517;1251;1005590;-83
2023/09/05 08:36:29;;;;;;;5.10;3.30;;;;;;;-128.00;-1.00;-1.00;105537;1251;1004410;-83
2023/09/05 08:38:56;;;;;;;4.30;3.30;;;;;;;-128.00;-1.00;-1.00;105612;1251;1005031;-83
2023/09/05 08:41:22;;;;;;;6.90;3.50;;;;;;;-128.00;-1.00;-1.00;105518;1252;1004175;-83
2023/09/05 08:43:49;;;;;;;4.10;3.10;;;;;;;-128.00;-1.00;-1.00;105571;1251;1003825;-83
2023/09/05 08:46:15;;;;;;;5.60;3.50;;;;;;;-128.00;-1.00;-1.00;105572;1251;1004438;-83
2023/09/05 08:48:42;;;;;;;6.80;3.20;;;;;;;-128.00;-1.00;-1.00;105557;1251;1003868;-83
2023/09/05 08:51:08;;;;;;;4.50;3.20;;;;;;;-128.00;-1.00;-1.00;105474;1250;1003756;-83
2023/09/05 08:53:42;;;;;;;4.30;3.20;;;;;;;-128.00;-1.00;-1.00;105343;1251;1004227;-83
2023/09/05 08:56:08;;;;;;;4.00;3.30;;;;;;;-128.00;-1.00;-1.00;105409;1251;1059899;-83
2023/09/05 08:58:35;;;;;;;4.40;2.60;;;;;;;-128.00;-1.00;-1.00;105521;1250;1005031;-84
2023/09/05 09:01:01;;;;;;;4.90;3.10;;;;;;;-128.00;-1.00;-1.00;105485;1251;1003830;-83
2023/09/05 09:03:30;;;;;;;4.70;3.00;;;;;;;-128.00;-1.00;-1.00;105504;1251;1004142;-83
2023/09/05 09:05:57;;;;;;;4.80;3.30;;;;;;;-128.00;-1.00;-1.00;105542;1251;1062031;-83
2023/09/05 09:08:24;;;;;;;3.70;2.60;;;;;;;-128.00;-1.00;-1.00;105620;1251;1004061;-83
2023/09/05 09:11:06;;;;;;;5.10;2.50;;;;;;;-128.00;-1.00;-1.00;105555;1251;1004425;-83
2023/09/05 09:13:33;;;;;;;4.90;4.40;;;;;;;-128.00;-1.00;-1.00;105569;1251;1043663;-83
2023/09/05 09:16:00;;;;;;;6.60;4.00;;;;;;;-128.00;-1.00;-1.00;105554;1250;1004993;-83
2023/09/05 09:18:26;;;;;;;5.60;3.40;;;;;;;-128.00;-1.00;-1.00;105606;1251;1003474;-83
2023/09/05 09:20:53;;;;;;;4.70;2.80;;;;;;;-128.00;-1.00;-1.00;105553;1251;1004203;-83
2023/09/05 09:23:26;;;;;;;5.40;2.90;;;;;;;-128.00;-1.00;-1.00;105554;1251;1003492;-83
2023/09/05 09:25:54;;;;;;;4.70;2.90;;;;;;;-128.00;-1.00;-1.00;105579;1251;1044259;-82
2023/09/05 09:28:22;;;;;;;5.70;3.10;;;;;;;-128.00;-1.00;-1.00;105339;1254;1005064;-83
2023/09/05 09:31:02;;;;;;;;;;;;;;;-128.00;-1.00;-1.00;105591;1251;1003597;-83
2023/09/05 09:33:31;;;;;;;4.40;2.70;;;;;;;-128.00;-1.00;-1.00;105519;1251;1057469;-83
2023/09/05 09:36:00;;;;;;;6.50;3.10;;;;;;;-128.00;-1.00;-1.00;105617;1251;1060828;-82
2023/09/05 09:38:28;;;;;;;3.30;2.40;;;;;;;-128.00;-1.00;-1.00;105572;1251;1044735;-82
2023/09/05 09:40:55;;;;;;;5.00;2.70;;;;;;;-128.00;-1.00;-1.00;105589;1250;1005884;-82
2023/09/05 09:43:22;;;;;;;3.90;2.80;;;;;;;-128.00;-1.00;-1.00;105598;1252;1004880;-82
2023/09/05 09:45:48;;;;;;;7.90;3.40;;;;;;;-128.00;-1.00;-1.00;105566;1251;1004698;-82
2023/09/05 09:48:15;;;;;;;5.60;2.80;;;;;;;-128.00;-1.00;-1.00;105562;1251;1004818;-82
2023/09/05 09:50:43;;;;;;;9.50;3.00;;;;;;;-128.00;-1.00;-1.00;105578;1251;1005947;-82
2023/09/05 09:53:12;;;;;;;4.50;2.70;;;;;;;-128.00;-1.00;-1.00;105511;1256;1003567;-82
2023/09/05 09:55:42;;;;;;;;;;;;;;;-128.00;-1.00;-1.00;105572;1251;1061391;-82
2023/09/05 09:58:14;;;;;;;5.30;2.70;;;;;;;-128.00;-1.00;-1.00;105504;1251;1058864;-82
2023/09/05 10:00:46;;;;;;;4.90;2.70;;;;;;;-128.00;-1.00;-1.00;105560;1251;1058287;-81
2023/09/05 10:03:13;;;;;;;6.20;3.00;;;;;;;-128.00;-1.00;-1.00;105542;1251;1044426;-82
2023/09/05 10:05:41;;;;;;;6.30;2.50;;;;;;;-128.00;-1.00;-1.00;105444;1251;1004364;-82
2023/09/05 10:08:09;;;;;;;4.60;2.40;;;;;;;-128.00;-1.00;-1.00;105512;1251;1003820;-82
2023/09/05 10:10:39;;;;;;;4.30;2.40;;;;;;;-128.00;-1.00;-1.00;105559;1254;1004102;-82
2023/09/05 10:13:06;;;;;;;4.70;2.40;;;;;;;-128.00;-1.00;-1.00;105490;1251;1060326;-81
2023/09/05 10:15:33;;;;;;;4.20;2.90;;;;;;;-128.00;-1.00;-1.00;105498;1252;1004475;-81
2023/09/05 10:17:59;;;;;;;4.10;2.80;;;;;;;-128.00;-1.00;-1.00;105380;1250;1004012;-81
2023/09/05 10:20:26;;;;;;;4.20;2.50;;;;;;;-128.00;-1.00;-1.00;105609;1251;1003682;-81
2023/09/05 10:22:53;;;;;;;3.80;2.40;;;;;;;-128.00;-1.00;-1.00;105407;1251;1005270;-81
2023/09/05 10:25:20;;;;;;;4.50;2.40;;;;;;;-128.00;-1.00;-1.00;105555;1251;1004044;-81
2023/09/05 10:27:46;;;;;;;3.50;2.70;;;;;;;-128.00;-1.00;-1.00;105468;1251;1003704;-82
2023/09/05 10:30:13;;;;;;;4.50;2.80;;;;;;;-128.00;-1.00;-1.00;105586;1251;1004405;-81
2023/09/05 10:32:46;;;;;;;4.90;2.80;;;;;;;-128.00;-1.00;-1.00;105551;1251;1004157;-81
2023/09/05 10:35:19;;;;;;;4.50;2.80;;;;;;;-128.00;-1.00;-1.00;105591;1251;1057821;-81
2023/09/05 10:37:48;;;;;;;6.90;2.50;;;;;;;-128.00;-1.00;-1.00;105566;1251;1059518;-82
2023/09/05 10:40:15;;;;;;;5.90;2.80;;;;;;;-128.00;-1.00;-1.00;105590;1251;1045246;-81
2023/09/05 10:42:45;;;;;;;7.10;3.40;;;;;;;-128.00;-1.00;-1.00;105553;1252;1004183;-82
2023/09/05 10:45:23;;;;;;;4.60;3.20;;;;;;;-128.00;-1.00;-1.00;105440;1251;1061349;-82
2023/09/05 10:47:50;;;;;;;5.80;2.60;;;;;;;-128.00;-1.00;-1.00;105586;1251;1057735;-81
2023/09/05 10:50:19;;;;;;;4.70;3.00;;;;;;;-128.00;-1.00;-1.00;105489;1250;1004746;-82
2023/09/05 10:52:50;;;;;;;4.30;2.80;;;;;;;-128.00;-1.00;-1.00;105588;1250;1044619;-82
2023/09/05 10:55:29;;;;;;;6.50;3.50;;;;;;;-128.00;-1.00;-1.00;105527;1251;1046841;-81
2023/09/05 10:57:56;;;;;;;4.80;2.70;;;;;;;-128.00;-1.00;-1.00;105600;1250;1061720;-82
2023/09/05 11:00:29;;;;;;;8.00;2.80;;;;;;;-128.00;-1.00;-1.00;105607;1255;1004161;-81
2023/09/05 11:03:09;;;;;;;7.30;3.50;;;;;;;-128.00;-1.00;-1.00;105505;1251;1059841;-81
2023/09/05 11:05:36;;;;;;;4.90;3.30;;;;;;;-128.00;-1.00;-1.00;105545;1256;1043801;-82
2023/09/05 11:08:02;;;;;;;5.00;2.90;;;;;;;-128.00;-1.00;-1.00;105573;1251;1005153;-81
2023/09/05 11:10:33;;;;;;;8.20;3.00;;;;;;;-128.00;-1.00;-1.00;105571;1251;1004776;-81